createdAt,value
2018-03-15T00:00:28.685Z,18.55
2018-03-15T00:01:31.205Z,19.55
2018-03-15T00:02:33.724Z,18.08
2018-03-15T00:03:37.050Z,17.23
2018-03-15T00:04:39.614Z,21.48
2018-03-15T00:05:42.147Z,21.62
2018-03-15T00:06:45.430Z,20.65
2018-03-15T00:07:48.708Z,18.25
2018-03-15T00:08:52.002Z,21.83
2018-03-15T00:09:55.316Z,27.60
2018-03-15T00:10:57.885Z,19.60
2018-03-15T00:12:00.398Z,24.50
2018-03-15T00:13:03.691Z,25.80
2018-03-15T00:14:06.979Z,25.60
2018-03-15T00:15:10.312Z,19.45
2018-03-15T00:16:12.843Z,20.60
2018-03-15T00:17:15.355Z,19.48
2018-03-15T00:18:17.869Z,23.77
2018-03-15T00:19:21.148Z,23.83
2018-03-15T00:20:24.466Z,23.83
2018-03-15T00:21:26.994Z,20.48
2018-03-15T00:22:33.138Z,19.65
2018-03-15T00:23:36.426Z,24.65
2018-03-15T00:24:39.748Z,22.17
2018-03-15T00:25:42.275Z,23.23
2018-03-15T00:26:45.561Z,20.67
2018-03-15T00:27:48.843Z,21.02
2018-03-15T00:28:52.181Z,25.65
2018-03-15T00:29:54.701Z,22.75
2018-03-15T00:30:57.985Z,21.77
2018-03-15T00:32:01.264Z,19.90
2018-03-15T00:33:04.551Z,24.65
2018-03-15T00:34:07.872Z,25.35
2018-03-15T00:35:10.402Z,20.08
2018-03-15T00:36:13.724Z,24.45
2018-03-15T00:37:16.246Z,25.75
2018-03-15T00:38:19.532Z,23.75
2018-03-15T00:39:22.813Z,23.80
2018-03-15T00:40:26.123Z,24.35
2018-03-15T00:41:28.681Z,23.20
2018-03-15T00:42:31.209Z,28.12
2018-03-15T00:43:33.764Z,23.60
2018-03-15T00:44:36.290Z,22.27
2018-03-15T00:45:38.805Z,22.50
2018-03-15T00:46:41.325Z,22.52
2018-03-15T00:47:43.851Z,25.05
2018-03-15T00:48:47.172Z,22.80
2018-03-15T00:49:49.693Z,23.87
2018-03-15T00:50:52.238Z,23.10
2018-03-15T00:51:54.749Z,21.50
2018-03-15T00:52:58.036Z,21.73
2018-03-15T00:54:00.597Z,25.00
2018-03-15T00:55:03.883Z,20.60
2018-03-15T00:56:07.166Z,22.30
2018-03-15T00:57:09.705Z,25.35
2018-03-15T00:58:12.220Z,20.67
2018-03-15T00:59:14.768Z,20.67
2018-03-15T01:00:18.116Z,25.95
2018-03-15T01:01:20.644Z,23.45
2018-03-15T01:02:23.171Z,22.58
2018-03-15T01:03:26.588Z,23.85
2018-03-15T01:04:29.101Z,23.98
2018-03-15T01:05:31.659Z,20.83
2018-03-15T01:06:34.221Z,25.92
2018-03-15T01:07:36.755Z,22.98
2018-03-15T01:08:39.299Z,22.60
2018-03-15T01:09:42.625Z,23.25
2018-03-15T01:10:45.144Z,22.87
2018-03-15T01:11:48.473Z,24.15
2018-03-15T01:12:50.989Z,25.12
2018-03-15T01:13:54.281Z,25.08
2018-03-15T01:14:57.580Z,22.83
2018-03-15T01:16:00.101Z,27.20
2018-03-15T01:17:02.658Z,24.30
2018-03-15T01:18:05.214Z,27.23
2018-03-15T01:19:07.730Z,21.87
2018-03-15T01:20:11.024Z,23.38
2018-03-15T01:21:13.576Z,26.35
2018-03-15T01:22:16.898Z,25.85
2018-03-15T01:23:19.414Z,28.48
2018-03-15T01:24:21.940Z,27.62
2018-03-15T01:25:24.457Z,24.67
2018-03-15T01:26:26.986Z,26.25
2018-03-15T01:27:29.533Z,28.62
2018-03-15T01:28:32.061Z,22.98
2018-03-15T01:29:35.376Z,23.42
2018-03-15T01:30:37.893Z,27.17
2018-03-15T01:31:40.409Z,24.40
2018-03-15T01:32:42.956Z,23.62
2018-03-15T01:33:45.485Z,24.52
2018-03-15T01:34:48.009Z,24.83
2018-03-15T01:35:50.534Z,23.98
2018-03-15T01:36:53.093Z,29.42
2018-03-15T01:37:56.381Z,27.75
2018-03-15T01:38:59.666Z,22.48
2018-03-15T01:40:02.997Z,25.88
2018-03-15T01:41:05.509Z,26.70
2018-03-15T01:42:08.028Z,24.00
2018-03-15T01:43:10.553Z,23.45
2018-03-15T01:44:13.833Z,25.50
2018-03-15T01:45:17.161Z,28.83
2018-03-15T01:46:19.693Z,28.58
2018-03-15T01:47:22.981Z,25.85
2018-03-15T01:48:25.512Z,32.60
2018-03-15T01:49:28.042Z,27.45
2018-03-15T01:50:30.600Z,24.73
2018-03-15T01:51:33.118Z,29.05
2018-03-15T01:52:35.674Z,30.23
2018-03-15T01:53:38.185Z,27.35
2018-03-15T01:54:40.742Z,23.17
2018-03-15T01:55:44.039Z,28.12
2018-03-15T01:56:46.561Z,27.95
2018-03-15T01:57:49.073Z,31.00
2018-03-15T01:58:51.591Z,30.55
2018-03-15T01:59:54.143Z,27.25
2018-03-15T02:00:56.669Z,30.67
2018-03-15T02:01:59.236Z,34.88
2018-03-15T02:03:01.752Z,28.40
2018-03-15T02:04:04.294Z,28.67
2018-03-15T02:05:06.837Z,27.90
2018-03-15T02:06:09.354Z,30.12
2018-03-15T02:07:11.909Z,30.70
2018-03-15T02:08:14.442Z,30.67
2018-03-15T02:09:16.958Z,32.78
2018-03-15T02:10:19.477Z,25.58
2018-03-15T02:11:21.993Z,25.40
2018-03-15T02:12:25.317Z,29.20
2018-03-15T02:13:27.841Z,28.00
2018-03-15T02:14:30.358Z,30.12
2018-03-15T02:15:32.879Z,28.42
2018-03-15T02:16:36.173Z,31.17
2018-03-15T02:17:39.492Z,32.17
2018-03-15T02:18:42.017Z,29.23
2018-03-15T02:19:45.317Z,23.85
2018-03-15T02:20:47.854Z,31.02
2018-03-15T02:21:50.420Z,33.10
2018-03-15T02:22:53.005Z,29.73
2018-03-15T02:23:56.298Z,28.25
2018-03-15T02:24:58.816Z,28.80
2018-03-15T02:26:01.375Z,28.62
2018-03-15T02:27:04.663Z,31.83
2018-03-15T02:28:07.194Z,31.25
2018-03-15T02:29:09.708Z,30.27
2018-03-15T02:30:12.230Z,30.33
2018-03-15T02:31:14.798Z,35.17
2018-03-15T02:32:17.313Z,27.60
2018-03-15T02:33:19.834Z,26.48
2018-03-15T02:34:22.390Z,28.98
2018-03-15T02:35:24.950Z,31.83
2018-03-15T02:36:27.463Z,35.03
2018-03-15T02:37:29.985Z,32.22
2018-03-15T02:38:32.517Z,39.13
2018-03-15T02:39:35.051Z,33.90
2018-03-15T02:40:37.612Z,34.63
2018-03-15T02:41:40.281Z,33.70
2018-03-15T02:42:42.810Z,34.08
2018-03-15T02:43:45.334Z,34.03
2018-03-15T02:44:47.885Z,34.28
2018-03-15T02:45:50.440Z,27.20
2018-03-15T02:46:53.061Z,32.10
2018-03-15T02:47:56.342Z,30.25
2018-03-15T02:48:59.649Z,31.20
2018-03-15T02:50:02.204Z,30.10
2018-03-15T02:51:04.739Z,34.55
2018-03-15T02:52:07.294Z,32.78
2018-03-15T02:53:09.822Z,30.08
2018-03-15T02:54:12.342Z,29.67
2018-03-15T02:55:14.861Z,31.85
2018-03-15T02:56:17.386Z,27.67
2018-03-15T02:57:20.721Z,28.77
2018-03-15T02:58:23.233Z,31.42
2018-03-15T02:59:25.763Z,39.17
2018-03-15T03:00:28.293Z,32.08
2018-03-15T03:01:30.849Z,31.87
2018-03-15T03:02:34.174Z,33.67
2018-03-15T03:03:36.690Z,34.20
2018-03-15T03:04:39.978Z,37.35
2018-03-15T03:05:43.273Z,32.45
2018-03-15T03:06:46.554Z,30.65
2018-03-15T03:07:49.877Z,30.37
2018-03-15T03:08:52.406Z,28.58
2018-03-15T03:09:55.700Z,29.17
2018-03-15T03:10:58.223Z,35.95
2018-03-15T03:12:00.739Z,29.85
2018-03-15T03:13:03.305Z,36.55
2018-03-15T03:14:05.827Z,32.55
2018-03-15T03:15:08.354Z,31.55
2018-03-15T03:16:10.885Z,34.58
2018-03-15T03:17:14.171Z,35.85
2018-03-15T03:18:17.485Z,29.98
2018-03-15T03:19:20.010Z,34.20
2018-03-15T03:20:23.312Z,30.23
2018-03-15T03:21:25.847Z,28.48
2018-03-15T03:22:28.409Z,33.17
2018-03-15T03:23:30.940Z,30.40
2018-03-15T03:24:33.469Z,31.85
2018-03-15T03:25:36.798Z,32.83
2018-03-15T03:26:40.097Z,31.12
2018-03-15T03:27:42.649Z,29.17
2018-03-15T03:28:45.174Z,31.73
2018-03-15T03:29:47.686Z,35.30
2018-03-15T03:30:50.270Z,31.83
2018-03-15T03:31:52.784Z,32.40
2018-03-15T03:32:55.297Z,35.63
2018-03-15T03:33:57.837Z,31.08
2018-03-15T03:35:00.358Z,32.50
2018-03-15T03:36:03.681Z,32.78
2018-03-15T03:37:06.208Z,40.53
2018-03-15T03:38:09.523Z,32.92
2018-03-15T03:39:12.041Z,34.13
2018-03-15T03:40:14.566Z,35.78
2018-03-15T03:41:17.121Z,35.05
2018-03-15T03:42:19.685Z,40.67
2018-03-15T03:43:22.214Z,32.92
2018-03-15T03:44:25.501Z,35.10
2018-03-15T03:45:28.793Z,30.88
2018-03-15T03:46:32.088Z,32.55
2018-03-15T03:47:34.643Z,30.75
2018-03-15T03:48:37.932Z,36.65
2018-03-15T03:49:41.258Z,31.77
2018-03-15T03:50:43.783Z,31.60
2018-03-15T03:51:46.338Z,30.98
2018-03-15T03:52:49.625Z,34.75
2018-03-15T03:53:52.910Z,33.75
2018-03-15T03:54:56.261Z,34.20
2018-03-15T03:55:58.785Z,27.92
2018-03-15T03:57:01.340Z,36.35
2018-03-15T03:58:03.856Z,31.05
2018-03-15T03:59:06.373Z,31.55
2018-03-15T04:00:08.893Z,33.95
2018-03-15T04:01:11.426Z,33.67
2018-03-15T04:02:13.985Z,33.45
2018-03-15T04:03:16.506Z,32.88
2018-03-15T04:04:19.024Z,31.58
2018-03-15T04:05:21.545Z,31.85
2018-03-15T04:06:24.824Z,34.05
2018-03-15T04:07:27.482Z,33.55
2018-03-15T04:08:30.800Z,32.83
2018-03-15T04:09:33.330Z,35.35
2018-03-15T04:10:35.853Z,34.20
2018-03-15T04:11:38.375Z,30.73
2018-03-15T04:12:40.932Z,33.80
2018-03-15T04:13:43.453Z,29.00
2018-03-15T04:14:45.976Z,33.10
2018-03-15T04:15:49.270Z,29.75
2018-03-15T04:16:51.798Z,32.50
2018-03-15T04:17:54.365Z,30.37
2018-03-15T04:18:56.883Z,33.15
2018-03-15T04:19:59.406Z,33.70
2018-03-15T04:21:01.937Z,34.47
2018-03-15T04:22:04.466Z,35.63
2018-03-15T04:23:07.789Z,31.83
2018-03-15T04:24:10.354Z,30.40
2018-03-15T04:25:12.890Z,31.40
2018-03-15T04:26:16.204Z,29.35
2018-03-15T04:27:18.769Z,37.95
2018-03-15T04:28:21.312Z,36.22
2018-03-15T04:29:23.853Z,32.42
2018-03-15T04:30:26.369Z,37.30
2018-03-15T04:31:28.925Z,31.35
2018-03-15T04:32:31.445Z,33.90
2018-03-15T04:33:33.974Z,34.67
2018-03-15T04:34:36.526Z,33.55
2018-03-15T04:35:39.045Z,32.53
2018-03-15T04:36:41.623Z,32.65
2018-03-15T04:37:44.913Z,36.83
2018-03-15T04:38:48.202Z,33.63
2018-03-15T04:39:51.492Z,31.83
2018-03-15T04:40:54.025Z,32.05
2018-03-15T04:41:56.576Z,39.05
2018-03-15T04:42:59.142Z,32.15
2018-03-15T04:44:01.672Z,36.17
2018-03-15T04:45:04.189Z,34.65
2018-03-15T04:46:06.706Z,34.45
2018-03-15T04:47:09.277Z,35.15
2018-03-15T04:48:11.800Z,34.28
2018-03-15T04:49:15.084Z,37.05
2018-03-15T04:50:18.376Z,35.50
2018-03-15T04:51:21.661Z,34.03
2018-03-15T04:52:25.001Z,29.87
2018-03-15T04:53:27.517Z,32.90
2018-03-15T04:54:30.798Z,34.75
2018-03-15T04:55:34.081Z,34.28
2018-03-15T04:56:37.363Z,37.40
2018-03-15T04:57:40.708Z,32.38
2018-03-15T04:58:43.237Z,31.37
2018-03-15T04:59:45.776Z,33.90
2018-03-15T05:00:49.064Z,35.67
2018-03-15T05:01:52.353Z,34.17
2018-03-15T05:02:54.920Z,33.83
2018-03-15T05:03:58.207Z,36.30
2018-03-15T05:05:00.848Z,30.17
2018-03-15T05:06:03.390Z,36.55
2018-03-15T05:07:05.970Z,33.38
2018-03-15T05:08:08.494Z,128.75
2018-03-15T05:09:11.018Z,63.05
2018-03-15T05:10:13.537Z,73.72
2018-03-15T05:11:16.065Z,55.40
2018-03-15T05:12:19.380Z,48.53
2018-03-15T05:13:22.040Z,49.50
2018-03-15T05:14:24.573Z,72.25
2018-03-15T05:15:27.854Z,82.72
2018-03-15T05:16:31.142Z,43.35
2018-03-15T05:17:34.428Z,46.60
2018-03-15T05:18:37.753Z,44.05
2018-03-15T05:19:40.279Z,50.00
2018-03-15T05:20:43.605Z,39.10
2018-03-15T05:21:46.125Z,34.83
2018-03-15T05:22:49.422Z,39.10
2018-03-15T05:23:52.746Z,47.85
2018-03-15T05:24:55.274Z,53.05
2018-03-15T05:25:58.567Z,39.65
2018-03-15T05:27:01.136Z,37.53
2018-03-15T05:28:03.789Z,33.17
2018-03-15T05:29:07.073Z,34.38
2018-03-15T05:30:09.604Z,31.90
2018-03-15T05:31:12.178Z,33.88
2018-03-15T05:32:14.726Z,38.60
2018-03-15T05:33:17.244Z,34.97
2018-03-15T05:34:20.542Z,34.05
2018-03-15T05:35:23.106Z,34.92
2018-03-15T05:36:25.639Z,32.33
2018-03-15T05:37:28.164Z,35.17
2018-03-15T05:38:30.713Z,30.67
2018-03-15T05:39:33.237Z,40.05
2018-03-15T05:40:35.776Z,34.45
2018-03-15T05:41:38.301Z,38.20
2018-03-15T05:42:40.825Z,35.35
2018-03-15T05:43:43.396Z,34.42
2018-03-15T05:44:45.953Z,37.85
2018-03-15T05:45:48.497Z,37.30
2018-03-15T05:46:51.023Z,30.80
2018-03-15T05:47:54.310Z,37.65
2018-03-15T05:48:56.829Z,34.22
2018-03-15T05:49:59.394Z,33.88
2018-03-15T05:51:01.913Z,33.05
2018-03-15T05:52:04.445Z,29.73
2018-03-15T05:53:07.008Z,34.97
2018-03-15T05:54:09.525Z,37.85
2018-03-15T05:55:12.044Z,37.33
2018-03-15T05:56:14.570Z,33.50
2018-03-15T05:57:17.897Z,35.10
2018-03-15T05:58:20.445Z,34.50
2018-03-15T05:59:22.956Z,30.60
2018-03-15T06:00:25.521Z,30.30
2018-03-15T06:01:28.056Z,30.02
2018-03-15T06:02:30.586Z,38.47
2018-03-15T06:03:33.115Z,31.83
2018-03-15T06:04:35.666Z,40.28
2018-03-15T06:05:38.995Z,31.83
2018-03-15T06:06:41.553Z,33.25
2018-03-15T06:07:44.082Z,32.97
2018-03-15T06:08:47.365Z,34.30
2018-03-15T06:09:50.648Z,33.45
2018-03-15T06:10:53.217Z,30.50
2018-03-15T06:11:56.507Z,32.42
2018-03-15T06:12:59.789Z,30.98
2018-03-15T06:14:03.109Z,38.15
2018-03-15T06:15:05.673Z,29.48
2018-03-15T06:16:08.262Z,37.65
2018-03-15T06:17:10.789Z,32.67
2018-03-15T06:18:13.314Z,33.22
2018-03-15T06:19:15.868Z,32.08
2018-03-15T06:20:18.382Z,32.67
2018-03-15T06:21:20.936Z,32.83
2018-03-15T06:22:24.228Z,31.80
2018-03-15T06:23:27.505Z,34.28
2018-03-15T06:24:30.785Z,34.80
2018-03-15T06:25:34.064Z,37.58
2018-03-15T06:26:36.624Z,31.83
2018-03-15T06:27:39.145Z,37.13
2018-03-15T06:28:41.671Z,34.90
2018-03-15T06:29:44.952Z,38.75
2018-03-15T06:30:48.247Z,36.50
2018-03-15T06:33:00.604Z,36.42
2018-03-15T06:34:03.229Z,40.72
2018-03-15T06:35:05.841Z,41.08
2018-03-15T06:36:08.373Z,40.05
2018-03-15T06:37:10.935Z,41.92
2018-03-15T06:38:13.456Z,39.92
2018-03-15T06:39:15.978Z,38.55
2018-03-15T06:40:18.505Z,37.88
2018-03-15T06:41:21.802Z,41.05
2018-03-15T06:42:25.129Z,41.05
2018-03-15T06:43:27.686Z,41.55
2018-03-15T06:44:30.238Z,49.88
2018-03-15T06:45:32.758Z,44.47
2018-03-15T06:46:35.320Z,40.33
2018-03-15T06:47:37.883Z,43.28
2018-03-15T06:48:40.438Z,44.35
2018-03-15T06:49:42.999Z,44.58
2018-03-15T06:50:45.513Z,41.10
2018-03-15T06:51:48.803Z,37.45
2018-03-15T06:52:51.329Z,41.88
2018-03-15T06:53:53.859Z,37.28
2018-03-15T06:54:56.417Z,37.65
2018-03-15T06:55:58.974Z,37.20
2018-03-15T06:57:01.502Z,42.75
2018-03-15T06:58:04.029Z,47.25
2018-03-15T06:59:06.544Z,43.47
2018-03-15T07:00:09.874Z,42.85
2018-03-15T07:01:12.403Z,41.35
2018-03-15T07:02:15.698Z,47.72
2018-03-15T07:03:18.979Z,43.75
2018-03-15T07:04:22.301Z,44.67
2018-03-15T07:05:25.667Z,39.25
2018-03-15T07:06:28.226Z,44.88
2018-03-15T07:07:30.751Z,46.70
2018-03-15T07:08:33.279Z,41.92
2018-03-15T07:09:35.836Z,40.38
2018-03-15T07:10:38.348Z,44.17
2018-03-15T07:11:40.899Z,38.90
2018-03-15T07:12:43.417Z,39.45
2018-03-15T07:13:45.940Z,44.50
2018-03-15T07:14:48.464Z,41.63
2018-03-15T07:15:50.981Z,39.75
2018-03-15T07:16:53.546Z,37.22
2018-03-15T07:17:56.062Z,36.38
2018-03-15T07:18:58.630Z,40.58
2018-03-15T07:20:01.154Z,40.38
2018-03-15T07:21:03.693Z,44.00
2018-03-15T07:22:06.219Z,38.08
2018-03-15T07:23:08.761Z,43.03
2018-03-15T07:24:12.076Z,44.80
2018-03-15T07:25:14.601Z,38.30
2018-03-15T07:26:17.121Z,39.13
2018-03-15T07:27:19.682Z,38.92
2018-03-15T07:28:22.280Z,39.38
2018-03-15T07:29:24.872Z,38.95
2018-03-15T07:30:27.419Z,36.25
2018-03-15T07:31:29.946Z,39.17
2018-03-15T07:32:32.471Z,35.67
2018-03-15T07:33:34.999Z,35.17
2018-03-15T07:34:37.570Z,41.20
2018-03-15T07:35:40.102Z,39.28
2018-03-15T07:36:42.663Z,38.03
2018-03-15T07:37:45.228Z,37.13
2018-03-15T07:38:47.773Z,39.30
2018-03-15T07:39:51.095Z,36.05
2018-03-15T07:40:53.630Z,40.03
2018-03-15T07:41:56.924Z,40.58
2018-03-15T07:43:00.218Z,37.38
2018-03-15T07:44:02.736Z,40.65
2018-03-15T07:45:05.295Z,44.13
2018-03-15T07:46:07.813Z,37.55
2018-03-15T07:47:10.349Z,45.20
2018-03-15T07:48:12.875Z,45.90
2018-03-15T07:49:15.435Z,41.97
2018-03-15T07:50:17.965Z,34.97
2018-03-15T07:51:21.253Z,41.28
2018-03-15T07:52:24.561Z,43.47
2018-03-15T07:53:27.081Z,40.00
2018-03-15T07:54:29.654Z,40.60
2018-03-15T07:55:32.952Z,39.78
2018-03-15T07:56:36.248Z,43.70
2018-03-15T07:57:38.770Z,44.08
2018-03-15T07:58:41.293Z,44.10
2018-03-15T07:59:43.846Z,47.75
2018-03-15T08:00:46.372Z,43.45
2018-03-15T08:01:48.899Z,42.40
2018-03-15T08:02:51.431Z,50.85
2018-03-15T08:03:54.763Z,42.80
2018-03-15T08:04:57.345Z,44.53
2018-03-15T08:05:59.863Z,40.63
2018-03-15T08:07:02.386Z,43.33
2018-03-15T08:08:04.910Z,40.83
2018-03-15T08:09:07.445Z,48.53
2018-03-15T08:10:10.770Z,41.75
2018-03-15T08:11:13.302Z,40.08
2018-03-15T08:12:15.828Z,47.95
2018-03-15T08:13:18.368Z,43.55
2018-03-15T08:14:20.897Z,45.83
2018-03-15T08:15:24.205Z,49.30
2018-03-15T08:16:26.725Z,45.33
2018-03-15T08:17:30.022Z,43.92
2018-03-15T08:18:33.304Z,49.60
2018-03-15T08:19:36.589Z,40.92
2018-03-15T08:20:39.929Z,43.67
2018-03-15T08:21:42.458Z,43.75
2018-03-15T08:22:44.980Z,42.55
2018-03-15T08:23:47.510Z,41.35
2018-03-15T08:24:50.034Z,49.00
2018-03-15T08:25:53.373Z,42.47
2018-03-15T08:26:55.894Z,44.20
2018-03-15T08:27:59.186Z,43.85
2018-03-15T08:29:01.712Z,40.12
2018-03-15T08:30:04.249Z,42.28
2018-03-15T08:31:06.820Z,39.60
2018-03-15T08:32:09.346Z,41.25
2018-03-15T08:33:12.651Z,45.25
2018-03-15T08:34:15.172Z,40.65
2018-03-15T08:35:17.704Z,42.60
2018-03-15T08:36:20.261Z,38.47
2018-03-15T08:37:22.782Z,46.45
2018-03-15T08:38:26.087Z,38.22
2018-03-15T08:39:28.648Z,42.62
2018-03-15T08:40:31.925Z,40.75
2018-03-15T08:41:35.222Z,39.22
2018-03-15T08:42:37.810Z,43.95
2018-03-15T08:43:40.328Z,44.25
2018-03-15T08:44:43.672Z,42.25
2018-03-15T08:45:46.178Z,43.53
2018-03-15T08:46:49.464Z,44.80
2018-03-15T08:47:52.795Z,43.70
2018-03-15T08:48:55.351Z,43.97
2018-03-15T08:49:57.944Z,43.58
2018-03-15T08:51:00.466Z,44.15
2018-03-15T08:52:02.986Z,48.92
2018-03-15T08:53:05.502Z,43.47
2018-03-15T08:54:08.053Z,44.75
2018-03-15T08:55:11.345Z,47.00
2018-03-15T08:56:14.632Z,41.58
2018-03-15T08:57:17.928Z,45.85
2018-03-15T08:58:20.466Z,43.13
2018-03-15T08:59:23.805Z,46.08
2018-03-15T09:00:26.327Z,41.45
2018-03-15T09:01:29.617Z,45.67
2018-03-15T09:02:32.150Z,41.17
2018-03-15T09:03:34.690Z,40.58
2018-03-15T09:04:37.806Z,42.83
2018-03-15T09:05:39.805Z,41.28
2018-03-15T09:06:42.329Z,43.85
2018-03-15T09:07:45.612Z,39.33
2018-03-15T09:08:49.057Z,40.78
2018-03-15T09:09:51.510Z,41.50
2018-03-15T09:10:54.027Z,42.38
2018-03-15T09:11:56.546Z,39.58
2018-03-15T09:12:59.070Z,49.83
2018-03-15T09:14:02.361Z,40.10
2018-03-15T09:15:05.685Z,42.30
2018-03-15T09:16:08.222Z,39.65
2018-03-15T09:17:10.789Z,40.88
2018-03-15T09:18:13.313Z,39.08
2018-03-15T09:19:15.841Z,40.45
2018-03-15T09:20:18.370Z,40.65
2018-03-15T09:21:21.705Z,39.20
2018-03-15T09:22:24.226Z,38.75
2018-03-15T09:23:26.794Z,42.13
2018-03-15T09:24:30.081Z,41.40
2018-03-15T09:25:32.606Z,39.88
2018-03-15T09:26:35.165Z,42.83
2018-03-15T09:27:37.686Z,39.97
2018-03-15T09:28:40.205Z,38.15
2018-03-15T09:29:42.725Z,38.67
2018-03-15T09:30:45.262Z,37.63
2018-03-15T09:31:47.842Z,37.80
2018-03-15T09:32:50.411Z,40.83
2018-03-15T09:33:52.993Z,39.78
2018-03-15T09:34:55.566Z,38.47
2018-03-15T09:35:58.106Z,39.22
2018-03-15T09:37:00.689Z,36.15
2018-03-15T09:38:03.241Z,37.63
2018-03-15T09:39:05.813Z,38.35
2018-03-15T09:40:08.353Z,43.55
2018-03-15T09:41:11.657Z,43.60
2018-03-15T09:42:14.237Z,33.90
2018-03-15T09:43:16.817Z,37.97
2018-03-15T09:44:19.405Z,37.63
2018-03-15T09:45:21.944Z,38.97
2018-03-15T09:46:24.486Z,38.20
2018-03-15T09:47:27.030Z,40.10
2018-03-15T09:48:30.370Z,34.42
2018-03-15T09:49:32.952Z,38.60
2018-03-15T09:50:35.498Z,37.70
2018-03-15T09:51:38.068Z,46.70
2018-03-15T09:52:40.611Z,40.35
2018-03-15T09:53:43.178Z,39.88
2018-03-15T09:54:45.731Z,42.35
2018-03-15T09:55:49.033Z,41.60
2018-03-15T09:56:51.599Z,41.22
2018-03-15T09:57:54.169Z,39.72
2018-03-15T09:58:56.714Z,39.25
2018-03-15T09:59:59.263Z,34.55
2018-03-15T10:01:02.586Z,36.97
2018-03-15T10:02:05.153Z,38.28
2018-03-15T10:03:07.734Z,38.17
2018-03-15T10:04:10.277Z,40.28
2018-03-15T10:05:12.875Z,37.42
2018-03-15T10:06:16.119Z,39.75
2018-03-15T10:07:18.747Z,43.13
2018-03-15T10:08:21.317Z,47.92
2018-03-15T10:09:23.857Z,40.25
2018-03-15T10:10:26.395Z,38.97
2018-03-15T10:11:28.938Z,39.20
2018-03-15T10:12:32.259Z,49.72
2018-03-15T10:13:34.848Z,40.22
2018-03-15T10:14:37.376Z,44.70
2018-03-15T10:15:39.917Z,38.78
2018-03-15T10:16:42.458Z,39.45
2018-03-15T10:17:44.990Z,48.25
2018-03-15T10:18:47.562Z,42.30
2018-03-15T10:19:50.093Z,43.35
2018-03-15T10:20:52.660Z,44.58
2018-03-15T10:21:55.206Z,45.55
2018-03-15T10:22:57.735Z,40.72
2018-03-15T10:24:00.286Z,45.12
2018-03-15T10:25:13.608Z,43.92
2018-03-15T10:26:06.941Z,43.33
2018-03-15T10:27:09.481Z,43.70
2018-03-15T10:28:12.798Z,42.88
2018-03-15T10:29:15.337Z,46.08
2018-03-15T10:30:18.684Z,44.45
2018-03-15T10:31:21.236Z,44.00
2018-03-15T10:32:24.511Z,43.55
2018-03-15T10:33:32.669Z,41.10
2018-03-15T10:34:35.976Z,42.03
2018-03-15T10:35:38.564Z,43.55
2018-03-15T10:36:41.118Z,47.28
2018-03-15T10:37:43.656Z,43.25
2018-03-15T10:38:46.968Z,41.90
2018-03-15T10:39:49.508Z,44.67
2018-03-15T10:40:52.894Z,45.38
2018-03-15T10:41:55.568Z,48.13
2018-03-15T10:42:58.117Z,44.70
2018-03-15T10:44:01.429Z,42.97
2018-03-15T10:45:03.980Z,40.55
2018-03-15T10:46:07.338Z,41.67
2018-03-15T10:47:09.887Z,40.55
2018-03-15T10:48:12.438Z,42.83
2018-03-15T10:49:14.972Z,38.70
2018-03-15T10:50:17.513Z,39.70
2018-03-15T10:51:20.104Z,40.97
2018-03-15T10:52:22.649Z,39.85
2018-03-15T10:53:25.189Z,40.65
2018-03-15T10:54:27.738Z,39.20
2018-03-15T10:55:30.289Z,39.45
2018-03-15T10:56:32.860Z,42.03
2018-03-15T10:57:35.397Z,41.53
2018-03-15T10:58:38.710Z,42.25
2018-03-15T10:59:41.246Z,38.28
2018-03-15T11:00:50.210Z,40.78
2018-03-15T11:01:58.418Z,46.53
2018-03-15T11:03:06.565Z,37.60
2018-03-15T11:04:10.897Z,38.97
2018-03-15T11:05:19.234Z,41.20
2018-03-15T11:06:28.240Z,42.35
2018-03-15T11:07:33.310Z,38.90
2018-03-15T11:08:36.653Z,41.63
2018-03-15T11:09:39.237Z,45.25
2018-03-15T11:10:41.778Z,46.10
2018-03-15T11:11:44.326Z,39.35
2018-03-15T11:12:46.893Z,39.42
2018-03-15T11:13:49.437Z,43.90
2018-03-15T11:14:52.016Z,40.35
2018-03-15T11:15:54.557Z,43.75
2018-03-15T11:16:57.907Z,45.40
2018-03-15T11:18:00.470Z,42.30
2018-03-15T11:19:03.038Z,40.85
2018-03-15T11:20:05.622Z,42.90
2018-03-15T11:21:08.208Z,43.85
2018-03-15T11:22:11.527Z,43.05
2018-03-15T11:23:14.069Z,41.95
2018-03-15T11:24:17.381Z,43.87
2018-03-15T11:25:19.933Z,44.20
2018-03-15T11:26:22.509Z,46.22
2018-03-15T11:27:25.057Z,42.10
2018-03-15T11:28:28.364Z,43.40
2018-03-15T11:29:30.924Z,45.33
2018-03-15T11:30:33.472Z,42.35
2018-03-15T11:31:36.827Z,38.17
2018-03-15T11:32:39.369Z,45.97
2018-03-15T11:33:41.921Z,38.65
2018-03-15T11:34:44.453Z,41.55
2018-03-15T11:35:47.751Z,43.42
2018-03-15T11:36:50.333Z,41.20
2018-03-15T11:37:52.888Z,39.22
2018-03-15T11:38:55.438Z,45.08
2018-03-15T11:39:58.746Z,45.00
2018-03-15T11:41:01.334Z,46.30
2018-03-15T11:42:03.882Z,45.30
2018-03-15T11:43:06.425Z,41.80
2018-03-15T11:44:09.745Z,38.67
2018-03-15T11:45:12.291Z,43.05
2018-03-15T11:46:14.873Z,42.53
2018-03-15T11:47:17.415Z,39.88
2018-03-15T11:48:19.973Z,45.40
2018-03-15T11:49:23.282Z,40.80
2018-03-15T11:50:25.819Z,44.38
2018-03-15T11:51:29.168Z,42.35
2018-03-15T11:52:31.725Z,43.38
2018-03-15T11:53:34.269Z,40.45
2018-03-15T11:54:36.826Z,41.80
2018-03-15T11:55:39.398Z,40.08
2018-03-15T11:56:41.937Z,41.33
2018-03-15T11:57:45.261Z,43.13
2018-03-15T11:58:47.805Z,40.63
2018-03-15T11:59:50.362Z,41.75
2018-03-15T12:00:53.709Z,41.08
2018-03-15T12:01:56.265Z,39.78
2018-03-15T12:02:58.804Z,44.55
2018-03-15T12:04:01.358Z,41.42
2018-03-15T12:05:03.939Z,43.58
2018-03-15T12:06:06.489Z,44.75
2018-03-15T12:07:09.040Z,43.05
2018-03-15T12:08:12.350Z,38.67
2018-03-15T12:09:14.906Z,41.60
2018-03-15T12:10:17.506Z,43.75
2018-03-15T12:11:20.053Z,43.25
2018-03-15T12:12:22.619Z,39.60
2018-03-15T12:13:25.164Z,43.70
2018-03-15T12:14:28.462Z,45.42
2018-03-15T12:15:31.051Z,40.53
2018-03-15T12:16:33.585Z,42.60
2018-03-15T12:17:36.882Z,43.47
2018-03-15T12:18:40.177Z,42.10
2018-03-15T12:19:42.704Z,44.67
2018-03-15T12:20:45.263Z,44.60
2018-03-15T12:21:47.798Z,43.67
2018-03-15T12:22:50.317Z,44.50
2018-03-15T12:23:53.611Z,40.70
2018-03-15T12:24:57.025Z,44.08
2018-03-15T12:25:59.551Z,43.90
2018-03-15T12:27:02.073Z,41.25
2018-03-15T12:28:04.726Z,40.90
2018-03-15T12:29:07.258Z,41.15
2018-03-15T12:30:10.564Z,43.92
2018-03-15T12:31:13.089Z,52.50
2018-03-15T12:32:15.613Z,43.87
2018-03-15T12:33:18.166Z,44.80
2018-03-15T12:34:20.728Z,44.08
2018-03-15T12:35:23.249Z,46.13
2018-03-15T12:36:25.777Z,39.65
2018-03-15T12:37:28.358Z,41.28
2018-03-15T12:38:31.650Z,42.55
2018-03-15T12:39:34.212Z,44.95
2018-03-15T12:40:36.762Z,40.20
2018-03-15T12:41:39.290Z,41.40
2018-03-15T12:42:42.595Z,40.53
2018-03-15T12:43:45.119Z,42.17
2018-03-15T12:44:47.688Z,45.78
2018-03-15T12:45:50.229Z,43.35
2018-03-15T12:46:52.759Z,46.05
2018-03-15T12:47:55.292Z,41.63
2018-03-15T12:48:57.829Z,39.75
2018-03-15T12:50:00.413Z,38.80
2018-03-15T12:51:02.941Z,40.28
2018-03-15T12:52:05.511Z,39.40
2018-03-15T12:53:08.033Z,36.20
2018-03-15T12:54:11.382Z,38.75
2018-03-15T12:55:13.909Z,39.67
2018-03-15T12:56:16.449Z,38.53
2018-03-15T12:57:19.767Z,41.88
2018-03-15T12:58:22.315Z,38.92
2018-03-15T12:59:25.606Z,38.53
2018-03-15T13:00:28.171Z,36.25
2018-03-15T13:01:31.446Z,36.88
2018-03-15T13:02:34.790Z,36.38
2018-03-15T13:03:37.384Z,34.55
2018-03-15T13:04:39.887Z,36.67
2018-03-15T13:05:42.422Z,38.35
2018-03-15T13:06:45.769Z,35.33
2018-03-15T13:07:48.296Z,33.38
2018-03-15T13:08:50.830Z,35.88
2018-03-15T13:09:53.348Z,36.30
2018-03-15T13:10:55.876Z,33.72
2018-03-15T13:11:59.229Z,45.17
2018-03-15T13:13:01.757Z,36.53
2018-03-15T13:14:04.277Z,33.95
2018-03-15T13:15:06.811Z,35.17
2018-03-15T13:16:09.341Z,33.00
2018-03-15T13:17:11.893Z,32.67
2018-03-15T13:18:14.429Z,31.70
2018-03-15T13:19:16.957Z,35.25
2018-03-15T13:20:19.480Z,35.95
2018-03-15T13:21:22.784Z,29.83
2018-03-15T13:22:25.347Z,36.08
2018-03-15T13:23:27.874Z,31.85
2018-03-15T13:24:30.442Z,35.55
2018-03-15T13:25:32.968Z,32.35
2018-03-15T13:26:35.502Z,31.70
2018-03-15T13:27:38.790Z,33.80
2018-03-15T13:28:42.134Z,33.80
2018-03-15T13:29:44.676Z,32.13